Minerva, Kentucky
Current Conditions -  °F | °C
As of 12:35 AM on Sunday 23 Nov 2014 (Local Time) from KFGX Reporting Station
Overcast Overcast  
Wind Chill: 43°   Ceiling: 9000
Heat Index: 47°   Visibility: 10mi
Dew Point: 31°   Wind: 8mph
Humidity: 54%   Direction: 170°S
Pressure: 30.1"   Gusts: NA
Location:  38.71°N, 83.92°W
Report Text: KFGX 230535Z AUTO 17007KT 10SM OVC090 08/M01 A3010 RMK AO2 T00831006
Loading
Personal Weather Stations






























Interactive Weather Map New forecast layout! Learn more

10-Day Weather Forecast

Advertisements
Track Severe Weather on mobile